Austin, Texas
Traffic Map
Current Weather Conditions
Austin, Texas
Clear
Clear
85°
Feels Like: 85°
Wind Chill: 85° Ceiling: Unl
Heat Index: 85° Visibility: 10mi
Dew Point: 61° Wind: 5mph
Humidity: 44% Direction: ° ()
Pressure: 30.11in Gusts: 0mph
Raw Report DataKATT 281751Z AUTO VRB04KT 10SM CLR 29/16 A3011 RMK AO2 SLP183 T02940161 10294 20183 58002
Traffic Incident Summary
Active as of:
Severity:
Category:
InformationThere was an issue retrieving the traffic information for this location. Please try a different location or try again shortly.
Advertisements
Track Severe Weather on mobile